Time;durP1;ratioP1;P1;durP2;ratioP2;P2;SDS_P1;SDS_P2;PMS_P1;PMS_P2;Temp;Humidity;BMP_temperature;BMP_pressure;BME280_temperature;BME280_humidity;BME280_pressure;Samples;Min_cycle;Max_cycle;Signal;HPM_P1;HPM_P2
2021/08/31 00:00:07;;;;;;;17.73;8.45;;;;;;;14.37;100.00;100959.19;5026322;28;20496;-84
2021/08/31 00:02:34;;;;;;;12.55;8.50;;;;;;;14.38;100.00;100969.69;5030622;28;20059;-84
2021/08/31 00:05:02;;;;;;;15.85;8.45;;;;;;;14.40;100.00;100965.09;4995904;28;20064;-84
2021/08/31 00:07:30;;;;;;;14.90;8.02;;;;;;;14.40;100.00;100970.41;5032226;28;20119;-84
2021/08/31 00:09:58;;;;;;;12.85;8.48;;;;;;;14.37;100.00;100983.88;5011274;28;20045;-83
2021/08/31 00:12:25;;;;;;;11.38;7.85;;;;;;;14.31;100.00;100971.03;5032391;28;20056;-83
2021/08/31 00:14:52;;;;;;;13.63;7.55;;;;;;;14.30;100.00;100969.34;5012865;28;20048;-85
2021/08/31 00:17:19;;;;;;;17.45;8.68;;;;;;;14.34;100.00;100972.66;5016740;28;20045;-84
2021/08/31 00:19:48;;;;;;;14.32;8.98;;;;;;;14.30;100.00;100969.34;5014558;28;20041;-84
2021/08/31 00:22:15;;;;;;;18.48;8.18;;;;;;;14.30;100.00;100968.50;5020112;28;20458;-86
2021/08/31 00:24:42;;;;;;;14.13;8.52;;;;;;;14.31;100.00;100962.25;4996135;28;20067;-84
2021/08/31 00:27:09;;;;;;;16.52;8.73;;;;;;;14.29;100.00;100961.53;5046712;28;20045;-85
2021/08/31 00:29:37;;;;;;;12.18;8.02;;;;;;;14.32;100.00;100958.66;5028097;28;20116;-84
2021/08/31 00:32:04;;;;;;;16.13;8.50;;;;;;;14.25;100.00;100960.88;5015460;28;20060;-85
2021/08/31 00:34:32;;;;;;;14.27;9.23;;;;;;;14.30;100.00;100961.41;5044344;28;20144;-85
2021/08/31 00:36:59;;;;;;;15.48;7.93;;;;;;;14.22;100.00;100950.50;5014695;28;20420;-85
2021/08/31 00:39:26;;;;;;;13.85;9.05;;;;;;;14.22;100.00;100962.88;5011094;28;20362;-84
2021/08/31 00:41:54;;;;;;;12.77;8.63;;;;;;;14.28;100.00;100965.13;5014970;28;20053;-86
2021/08/31 00:44:22;;;;;;;13.35;8.57;;;;;;;14.24;100.00;100961.00;5027187;28;20544;-85
2021/08/31 00:46:54;;;;;;;16.52;9.68;;;;;;;14.23;100.00;100967.22;5039215;28;20525;-85
2021/08/31 00:49:22;;;;;;;16.92;10.20;;;;;;;14.19;100.00;100962.16;5067071;28;20041;-86
2021/08/31 00:51:51;;;;;;;14.18;9.23;;;;;;;14.17;100.00;100968.50;5019535;28;20065;-83
2021/08/31 00:54:20;;;;;;;18.55;9.75;;;;;;;14.17;100.00;100972.00;5030168;28;20049;-85
2021/08/31 00:56:51;;;;;;;16.48;9.23;;;;;;;14.16;100.00;100967.66;5039935;28;20338;-86
2021/08/31 00:59:19;;;;;;;20.42;8.25;;;;;;;14.25;100.00;100965.34;5024649;28;20049;-86
2021/08/31 01:01:51;;;;;;;14.25;9.35;;;;;;;14.21;100.00;100974.44;5038768;28;20035;-86
2021/08/31 01:04:19;;;;;;;14.48;8.70;;;;;;;14.24;100.00;100975.09;5011747;28;20048;-87
2021/08/31 01:06:48;;;;;;;19.88;8.43;;;;;;;14.24;100.00;100961.84;5016919;28;20095;-85
2021/08/31 01:09:16;;;;;;;16.05;9.50;;;;;;;14.17;100.00;100968.50;5027653;28;20033;-84
2021/08/31 01:11:45;;;;;;;14.45;8.60;;;;;;;14.18;100.00;100957.81;5017188;28;20141;-86
2021/08/31 01:14:13;;;;;;;19.15;9.93;;;;;;;14.22;100.00;100955.78;5029809;28;20053;-87
2021/08/31 01:16:41;;;;;;;16.55;9.40;;;;;;;14.26;100.00;100964.38;5012253;28;20095;-84
2021/08/31 01:19:08;;;;;;;15.57;9.50;;;;;;;14.15;100.00;100968.63;5019480;28;20140;-84
2021/08/31 01:21:36;;;;;;;12.40;8.30;;;;;;;14.16;100.00;100956.22;5013684;28;20479;-84
2021/08/31 01:24:03;;;;;;;15.85;9.48;;;;;;;14.15;100.00;100965.97;5036443;28;20135;-85
2021/08/31 01:26:30;;;;;;;12.85;8.27;;;;;;;14.23;100.00;100961.94;5015583;28;20147;-84
2021/08/31 01:28:58;;;;;;;14.25;9.02;;;;;;;14.19;100.00;100958.66;5018519;28;20054;-85
2021/08/31 01:31:26;;;;;;;15.30;9.13;;;;;;;14.13;100.00;100962.56;5027717;28;20041;-85
2021/08/31 01:33:54;;;;;;;18.45;9.85;;;;;;;14.14;100.00;100963.44;5015472;28;20087;-85
2021/08/31 01:36:24;;;;;;;19.35;9.25;;;;;;;14.11;100.00;100963.63;5014244;28;20048;-87
2021/08/31 01:38:54;;;;;;;16.42;9.60;;;;;;;14.17;100.00;100968.50;5017508;28;20563;-85
2021/08/31 01:41:26;;;;;;;16.05;9.27;;;;;;;14.16;100.00;100978.25;5015628;28;20048;-84
2021/08/31 01:43:53;;;;;;;16.50;9.13;;;;;;;14.22;100.00;100976.13;5021554;28;20047;-84
2021/08/31 01:46:20;;;;;;;13.25;8.45;;;;;;;14.22;100.00;100978.78;5020112;28;20044;-86
2021/08/31 01:48:47;;;;;;;18.42;9.43;;;;;;;14.17;100.00;100979.09;5015854;28;20049;-86
2021/08/31 01:51:15;;;;;;;14.10;8.18;;;;;;;14.17;100.00;100981.75;5023108;28;20125;-85
2021/08/31 01:53:42;;;;;;;13.93;9.25;;;;;;;14.16;100.00;100985.34;5004748;28;20103;-85
2021/08/31 01:56:09;;;;;;;13.95;9.15;;;;;;;14.24;100.00;100975.09;4997047;28;20043;-84
2021/08/31 01:58:36;;;;;;;14.55;9.30;;;;;;;14.19;100.00;100975.41;5024334;28;20633;-85
2021/08/31 02:01:04;;;;;;;15.88;9.40;;;;;;;14.22;100.00;100962.88;5035824;28;20072;-85
2021/08/31 02:03:31;;;;;;;13.90;8.48;;;;;;;14.31;100.00;100972.84;5035788;28;20113;-84
2021/08/31 02:06:03;;;;;;;19.98;9.52;;;;;;;14.29;100.00;100977.41;5033804;28;20152;-83
2021/08/31 02:08:30;;;;;;;16.55;10.27;;;;;;;14.15;100.00;100970.41;5045709;28;20122;-85
2021/08/31 02:10:58;;;;;;;18.75;9.80;;;;;;;14.06;100.00;100963.94;5017842;28;20110;-87
2021/08/31 02:13:25;;;;;;;17.08;9.77;;;;;;;14.09;100.00;100961.06;5023188;28;20087;-83
2021/08/31 02:15:53;;;;;;;19.67;10.27;;;;;;;14.08;100.00;100963.84;5038761;28;20068;-84
2021/08/31 02:18:20;;;;;;;17.17;10.32;;;;;;;14.05;100.00;100966.69;5019032;28;20168;-83
2021/08/31 02:20:47;;;;;;;17.52;10.00;;;;;;;14.02;100.00;100967.75;5011095;28;20474;-84
2021/08/31 02:23:14;;;;;;;15.43;10.70;;;;;;;13.90;100.00;100964.13;5012086;28;20143;-85
2021/08/31 02:25:42;;;;;;;20.58;11.30;;;;;;;13.87;100.00;100960.84;5028976;28;20053;-84
2021/08/31 02:28:09;;;;;;;17.05;11.40;;;;;;;13.74;100.00;100967.91;5029879;28;20069;-84
2021/08/31 02:30:36;;;;;;;20.48;10.85;;;;;;;13.72;100.00;100961.88;5012021;28;20076;-83
2021/08/31 02:33:03;;;;;;;14.90;10.85;;;;;;;13.74;100.00;100966.13;4997779;28;20041;-85
2021/08/31 02:35:31;;;;;;;15.27;11.45;;;;;;;13.64;100.00;100965.88;5029207;28;20182;-83
2021/08/31 02:37:58;;;;;;;23.15;13.00;;;;;;;13.62;100.00;100959.84;5033596;28;20511;-84
2021/08/31 02:40:26;;;;;;;16.83;11.95;;;;;;;13.62;100.00;100969.56;4992437;28;20041;-85
2021/08/31 02:42:53;;;;;;;17.13;11.80;;;;;;;13.62;100.00;100978.34;5001223;28;20428;-82
2021/08/31 02:45:20;;;;;;;17.70;11.07;;;;;;;13.61;100.00;100970.53;5047196;28;20126;-84
2021/08/31 02:47:47;;;;;;;14.82;11.65;;;;;;;13.68;100.00;100977.94;5025106;28;20045;-83
2021/08/31 02:50:15;;;;;;;17.02;11.43;;;;;;;13.77;100.00;100967.69;5027428;28;20045;-84
2021/08/31 02:52:44;;;;;;;19.38;11.43;;;;;;;13.66;100.00;100969.28;5034358;28;20485;-87
2021/08/31 02:55:12;;;;;;;18.63;13.18;;;;;;;13.66;100.00;100969.28;5034759;28;20440;-83
2021/08/31 02:57:39;;;;;;;15.80;11.50;;;;;;;13.71;100.00;100965.47;5036568;28;20099;-84
2021/08/31 03:00:08;;;;;;;20.85;12.98;;;;;;;13.79;100.00;100968.47;4997958;28;20469;-83
2021/08/31 03:02:36;;;;;;;15.45;11.25;;;;;;;13.79;100.00;100963.16;5023003;28;20053;-83
2021/08/31 03:05:03;;;;;;;17.52;11.65;;;;;;;13.87;100.00;100971.44;5014143;28;20465;-85
2021/08/31 03:07:30;;;;;;;17.80;10.77;;;;;;;13.76;100.00;100966.00;5017170;28;20068;-84
2021/08/31 03:09:58;;;;;;;16.85;11.35;;;;;;;13.77;100.00;100976.47;5034868;28;20121;-84
2021/08/31 03:12:25;;;;;;;13.88;10.65;;;;;;;13.82;100.00;100970.88;5047765;28;20480;-84
2021/08/31 03:14:52;;;;;;;19.08;11.88;;;;;;;13.77;100.00;100973.84;5032685;28;20068;-86
2021/08/31 03:17:19;;;;;;;16.52;10.73;;;;;;;13.74;100.00;100970.56;5016348;28;20067;-85
2021/08/31 03:19:46;;;;;;;16.38;11.80;;;;;;;13.76;100.00;100982.72;5009848;28;20056;-86
2021/08/31 03:22:15;;;;;;;19.23;10.15;;;;;;;13.85;100.00;100974.19;5030322;28;20064;-84
2021/08/31 03:24:42;;;;;;;16.70;10.52;;;;;;;13.83;100.00;100975.25;5030315;28;20052;-84
2021/08/31 03:27:09;;;;;;;18.27;11.05;;;;;;;13.83;100.00;100977.91;5013333;28;20145;-85
2021/08/31 03:29:37;;;;;;;18.35;11.73;;;;;;;13.78;100.00;100977.31;4995339;28;20041;-84
2021/08/31 03:32:04;;;;;;;15.75;11.20;;;;;;;13.81;100.00;100977.97;5016892;28;20068;-84
2021/08/31 03:34:32;;;;;;;16.80;11.32;;;;;;;13.85;100.00;100982.13;5011836;28;20077;-84
2021/08/31 03:36:59;;;;;;;16.40;11.73;;;;;;;13.80;100.00;100984.22;5013880;28;20076;-84
2021/08/31 03:39:26;;;;;;;14.55;10.70;;;;;;;13.78;100.00;100987.91;5027522;28;20584;-83
2021/08/31 03:41:54;;;;;;;16.88;10.13;;;;;;;13.82;100.00;100977.03;5043150;28;20564;-84
2021/08/31 03:44:23;;;;;;;14.68;9.93;;;;;;;13.84;100.00;100983.06;5029466;28;20037;-84
2021/08/31 03:46:50;;;;;;;16.55;10.52;;;;;;;14.01;100.00;100979.31;4996869;28;20139;-82
2021/08/31 03:49:17;;;;;;;20.00;11.45;;;;;;;13.84;100.00;100983.06;5030104;28;20071;-84
2021/08/31 03:51:45;;;;;;;21.48;11.82;;;;;;;13.87;100.00;100990.81;5020669;28;20087;-84
2021/08/31 03:54:12;;;;;;;18.40;11.77;;;;;;;13.87;100.00;100982.03;5029280;28;20434;-83
2021/08/31 03:56:39;;;;;;;16.85;11.77;;;;;;;13.83;100.00;100985.84;5013372;28;20353;-84
2021/08/31 03:59:06;;;;;;;17.27;11.85;;;;;;;13.78;100.00;100998.50;5010947;28;20052;-85
2021/08/31 04:01:34;;;;;;;16.17;11.27;;;;;;;13.89;100.00;100996.00;5014725;28;20392;-85
2021/08/31 04:04:01;;;;;;;19.55;11.32;;;;;;;13.78;100.00;100993.19;5011883;28;20052;-85
2021/08/31 04:06:29;;;;;;;17.00;10.88;;;;;;;13.84;100.00;100992.81;5033844;28;20041;-83
2021/08/31 04:08:57;;;;;;;18.75;11.98;;;;;;;13.83;100.00;101001.72;5042456;28;20501;-84
2021/08/31 04:11:24;;;;;;;14.55;10.73;;;;;;;13.89;100.00;100993.34;5029082;28;20060;-84
2021/08/31 04:13:51;;;;;;;15.77;10.68;;;;;;;13.85;100.00;101002.44;5027242;28;20441;-83
2021/08/31 04:16:19;;;;;;;15.93;11.48;;;;;;;13.85;100.00;101007.72;5024353;28;20152;-83
2021/08/31 04:18:46;;;;;;;15.90;10.77;;;;;;;13.80;100.00;101008.03;5019226;28;20141;-80
2021/08/31 04:21:17;;;;;;;17.10;10.00;;;;;;;13.86;100.00;100997.03;5035682;28;20546;-83
2021/08/31 04:23:46;;;;;;;15.57;10.20;;;;;;;13.94;100.00;101002.66;5031962;28;20067;-78
2021/08/31 04:26:15;;;;;;;15.15;10.13;;;;;;;13.90;100.00;101005.63;5053663;28;20136;-84
2021/08/31 04:28:45;;;;;;;18.75;11.52;;;;;;;13.82;100.00;101000.00;5045708;28;20434;-88
2021/08/31 04:31:15;;;;;;;15.05;10.52;;;;;;;13.96;100.00;101004.34;5018469;28;20132;-82
2021/08/31 04:33:42;;;;;;;15.27;9.70;;;;;;;13.93;100.00;101000.97;5036600;28;20206;-78
2021/08/31 04:36:13;;;;;;;19.55;11.20;;;;;;;13.94;100.00;101009.75;5034499;28;20052;-77
2021/08/31 04:38:40;;;;;;;15.77;10.68;;;;;;;13.89;100.00;101009.22;5031908;28;20564;-82
2021/08/31 04:41:13;;;;;;;16.90;9.55;;;;;;;13.91;100.00;101015.25;5048707;28;20509;-82
2021/08/31 04:43:43;;;;;;;16.52;9.60;;;;;;;13.90;100.00;101017.06;5035500;28;20051;-81
2021/08/31 04:46:23;;;;;;;20.25;10.00;;;;;;;13.92;100.00;101016.97;5033429;28;20125;-79
2021/08/31 04:48:54;;;;;;;15.25;9.43;;;;;;;13.93;100.00;101008.91;5032005;28;20382;-83
2021/08/31 04:51:24;;;;;;;14.88;9.65;;;;;;;13.86;100.00;101002.31;5039924;28;20051;-88
2021/08/31 04:53:53;;;;;;;19.90;10.23;;;;;;;13.91;100.00;101009.97;5024764;28;20064;-81
2021/08/31 04:56:20;;;;;;;12.82;10.07;;;;;;;13.91;100.00;101015.25;5054264;28;20121;-80
2021/08/31 04:58:48;;;;;;;16.73;10.73;;;;;;;13.90;100.00;101014.41;5058853;28;20127;-82
2021/08/31 05:01:17;;;;;;;16.40;10.52;;;;;;;13.90;100.00;101014.41;5024068;28;20064;-81
2021/08/31 05:03:47;;;;;;;14.18;10.15;;;;;;;13.85;100.00;101011.22;5058236;28;20456;-79
2021/08/31 05:06:17;;;;;;;12.40;9.70;;;;;;;13.90;100.00;101016.22;5059684;28;20075;-80
2021/08/31 05:08:44;;;;;;;18.92;10.25;;;;;;;13.85;100.00;101016.53;5063810;28;20132;-80
2021/08/31 05:11:15;;;;;;;15.15;10.52;;;;;;;13.93;100.00;101008.91;5022164;28;20415;-80
2021/08/31 05:13:43;;;;;;;15.38;9.95;;;;;;;13.87;100.00;101014.63;5039567;28;20144;-82
2021/08/31 05:16:16;;;;;;;13.35;8.77;;;;;;;13.79;100.00;101008.16;5023530;28;20136;-88
2021/08/31 05:18:47;;;;;;;17.88;10.20;;;;;;;13.75;100.00;101014.59;5043931;28;20114;-80
2021/08/31 05:21:17;;;;;;;16.77;11.32;;;;;;;13.71;100.00;101010.44;5030281;28;20036;-83
2021/08/31 05:23:49;;;;;;;16.17;10.90;;;;;;;13.55;100.00;101006.16;5041132;28;20571;-88
2021/08/31 05:26:17;;;;;;;14.82;10.63;;;;;;;13.65;100.00;101012.56;5027814;28;20091;-83
2021/08/31 05:28:46;;;;;;;18.02;10.02;;;;;;;13.66;100.00;101010.75;5048821;28;20118;-84
2021/08/31 05:31:16;;;;;;;20.10;11.18;;;;;;;13.71;100.00;101013.94;5042641;28;20040;-83
2021/08/31 05:33:46;;;;;;;16.70;11.13;;;;;;;13.77;100.00;101018.81;5021593;28;20037;-86
2021/08/31 05:36:15;;;;;;;17.40;10.02;;;;;;;13.68;100.00;101011.50;5000073;28;20067;-82
2021/08/31 05:38:42;;;;;;;19.90;10.45;;;;;;;13.77;100.00;101023.25;5013770;28;20176;-82
2021/08/31 05:41:09;;;;;;;18.00;11.23;;;;;;;13.79;100.00;101019.59;5021948;28;20053;-80
2021/08/31 05:43:37;;;;;;;17.63;10.07;;;;;;;13.75;100.00;101017.25;5038478;28;20063;-81
2021/08/31 05:46:11;;;;;;;17.38;11.40;;;;;;;13.72;100.00;101020.91;5020832;28;20862;-82
2021/08/31 05:48:38;;;;;;;19.23;10.77;;;;;;;13.77;100.00;101018.81;5004394;28;20083;-82
2021/08/31 05:51:08;;;;;;;16.58;10.13;;;;;;;13.89;100.00;101019.81;5039086;28;20098;-80
2021/08/31 05:53:36;;;;;;;18.00;10.65;;;;;;;13.82;100.00;101021.16;5054084;28;20079;-82
2021/08/31 05:56:03;;;;;;;14.63;9.77;;;;;;;13.94;100.00;101028.28;5051557;28;20140;-82
2021/08/31 05:58:30;;;;;;;15.20;10.00;;;;;;;14.11;100.00;101030.66;5029338;28;20128;-83
2021/08/31 06:00:59;;;;;;;15.07;9.73;;;;;;;14.07;100.00;101037.13;5050435;28;20053;-83
2021/08/31 06:03:26;;;;;;;15.85;10.13;;;;;;;14.04;100.00;101026.72;5046117;28;20044;-80
2021/08/31 06:05:53;;;;;;;13.55;9.82;;;;;;;14.11;100.00;101032.47;5039037;28;20102;-81
2021/08/31 06:08:21;;;;;;;17.55;9.00;;;;;;;14.11;100.00;101037.75;5049187;28;20084;-79
2021/08/31 06:10:48;;;;;;;16.50;8.85;;;;;;;14.10;100.00;101034.28;5017503;28;20148;-79
2021/08/31 06:13:19;;;;;;;11.85;9.07;;;;;;;14.15;100.00;101040.09;5046558;28;20095;-80
2021/08/31 06:15:47;;;;;;;14.52;9.77;;;;;;;14.23;100.00;101033.41;5033855;28;20102;-78
2021/08/31 06:18:14;;;;;;;11.85;9.45;;;;;;;14.16;100.00;101030.34;5030648;28;20155;-78
2021/08/31 06:20:41;;;;;;;12.98;8.65;;;;;;;14.12;100.00;101032.34;5033678;28;20124;-80
2021/08/31 06:23:09;;;;;;;14.18;9.90;;;;;;;14.05;100.00;101035.50;5031323;28;20072;-78
2021/08/31 06:25:37;;;;;;;11.85;9.88;;;;;;;13.98;100.00;101034.25;5027362;28;20049;-79
2021/08/31 06:28:07;;;;;;;18.30;9.60;;;;;;;13.92;100.00;101039.00;5018118;28;20464;-81
2021/08/31 06:30:34;;;;;;;13.90;10.38;;;;;;;13.85;100.00;101035.03;5009976;28;20216;-77
2021/08/31 06:33:02;;;;;;;16.98;11.73;;;;;;;13.86;100.00;101039.38;5013000;28;20045;-80
2021/08/31 06:35:29;;;;;;;12.80;10.95;;;;;;;13.75;100.00;101033.97;5015633;28;20080;-78
2021/08/31 06:37:56;;;;;;;14.68;11.18;;;;;;;13.78;100.00;101041.72;5049925;28;20478;-79
2021/08/31 06:40:24;;;;;;;13.68;11.07;;;;;;;13.74;100.00;101048.16;5044765;28;20113;-79
2021/08/31 06:42:52;;;;;;;17.45;11.15;;;;;;;13.73;100.00;101043.78;5050394;28;20047;-77
2021/08/31 06:45:19;;;;;;;13.57;10.65;;;;;;;13.75;100.00;101049.84;5027477;28;20059;-80
2021/08/31 06:47:48;;;;;;;14.95;10.55;;;;;;;13.85;100.00;101050.06;5049322;28;20579;-82
2021/08/31 06:50:17;;;;;;;20.35;12.25;;;;;;;13.90;100.00;101063.84;5024676;28;20048;-79
2021/08/31 06:52:47;;;;;;;12.63;10.20;;;;;;;13.90;100.00;101061.19;5015103;28;20125;-78
2021/08/31 06:55:14;;;;;;;13.73;10.32;;;;;;;13.86;100.00;101065.84;5026461;28;20053;-77
2021/08/31 06:57:42;;;;;;;15.30;10.40;;;;;;;13.91;100.00;101061.13;5012609;28;20091;-79
2021/08/31 07:00:10;;;;;;;15.57;10.98;;;;;;;14.13;100.00;101064.97;4990089;28;20056;-77
2021/08/31 07:02:37;;;;;;;13.27;10.30;;;;;;;14.41;100.00;101056.03;5026572;28;20460;-79
2021/08/31 07:05:05;;;;;;;11.93;8.85;;;;;;;14.60;100.00;101060.94;5011666;28;20049;-79
2021/08/31 07:07:32;;;;;;;14.73;9.68;;;;;;;14.67;100.00;101068.34;5035052;28;20067;-78
2021/08/31 07:10:00;;;;;;;9.35;8.40;;;;;;;14.92;100.00;101070.16;5023946;28;20140;-78
2021/08/31 07:12:28;;;;;;;10.88;7.95;;;;;;;15.02;100.00;101077.47;5015560;28;20116;-76
2021/08/31 07:14:57;;;;;;;14.10;8.35;;;;;;;15.12;100.00;101082.00;5026200;28;20041;-78
2021/08/31 07:17:25;;;;;;;9.93;8.55;;;;;;;15.28;100.00;101081.78;5030899;28;20044;-79
2021/08/31 07:19:52;;;;;;;12.25;8.60;;;;;;;15.04;100.00;101081.72;5031674;28;20121;-80
2021/08/31 07:22:20;;;;;;;10.35;7.90;;;;;;;15.25;100.00;101087.28;5028090;28;20145;-79
2021/08/31 07:24:47;;;;;;;11.90;7.30;;;;;;;15.18;100.00;101091.34;5022360;28;20567;-79
2021/08/31 07:27:14;;;;;;;12.90;7.75;;;;;;;15.24;100.00;101085.59;5050593;28;20372;-80
2021/08/31 07:29:42;;;;;;;15.10;6.93;;;;;;;15.37;100.00;101093.53;5009894;28;20496;-78
2021/08/31 07:32:09;;;;;;;12.35;7.97;;;;;;;15.39;100.00;101095.09;5032833;28;20140;-79
2021/08/31 07:34:38;;;;;;;11.68;8.23;;;;;;;15.44;100.00;101093.00;5050947;28;20128;-80
2021/08/31 07:37:07;;;;;;;9.38;7.97;;;;;;;15.52;100.00;101092.44;5032703;28;20048;-78
2021/08/31 07:39:34;;;;;;;9.90;7.75;;;;;;;15.57;100.00;101092.09;5038965;28;20124;-78
2021/08/31 07:42:02;;;;;;;12.13;7.05;;;;;;;16.00;100.00;101096.97;5015006;28;20293;-80
2021/08/31 07:44:29;;;;;;;12.63;7.13;;;;;;;16.30;99.82;101091.13;5010220;28;20886;-81
2021/08/31 07:46:57;;;;;;;10.95;7.05;;;;;;;16.85;95.77;101101.09;4995631;28;20462;-79
2021/08/31 07:49:24;;;;;;;12.07;7.10;;;;;;;17.24;93.51;101111.38;5026940;28;20183;-78
2021/08/31 07:51:51;;;;;;;7.80;6.40;;;;;;;17.59;90.85;101108.56;5028744;28;20059;-79
2021/08/31 07:54:19;;;;;;;9.95;6.57;;;;;;;19.02;83.91;101093.03;5023438;28;20053;-81
2021/08/31 07:56:47;;;;;;;7.90;5.93;;;;;;;21.72;69.20;101093.00;5030418;28;20435;-79
2021/08/31 07:59:14;;;;;;;9.20;5.07;;;;;;;22.44;64.79;101096.53;5022564;28;20101;-79
2021/08/31 08:01:42;;;;;;;7.25;5.28;;;;;;;24.42;57.53;101085.38;5024430;28;20144;-81
2021/08/31 08:04:09;;;;;;;8.82;5.57;;;;;;;24.17;56.52;101097.94;5029744;28;20065;-78
2021/08/31 08:06:36;;;;;;;10.70;5.22;;;;;;;24.24;56.47;101088.22;5027599;28;20142;-80
2021/08/31 08:09:05;;;;;;;10.10;5.80;;;;;;;21.88;62.93;101098.50;5048176;28;20138;-78
2021/08/31 08:11:34;;;;;;;7.75;5.32;;;;;;;22.04;63.04;101102.34;5016273;28;20045;-79
2021/08/31 08:14:01;;;;;;;8.63;4.85;;;;;;;20.24;69.37;101106.13;5034242;28;20069;-78
2021/08/31 08:16:28;;;;;;;7.90;5.50;;;;;;;20.34;71.52;101115.97;5011786;28;20113;-78
2021/08/31 08:18:56;;;;;;;8.70;5.57;;;;;;;19.46;75.10;101104.31;5027102;28;20086;-83
2021/08/31 08:21:25;;;;;;;10.05;5.53;;;;;;;20.36;71.76;101109.50;5048060;28;20138;-77
2021/08/31 08:23:52;;;;;;;6.90;4.95;;;;;;;21.43;66.74;101114.56;5052425;28;20087;-79
2021/08/31 08:26:19;;;;;;;8.43;5.30;;;;;;;19.69;72.06;101107.63;5028585;28;20124;-77
2021/08/31 08:28:46;;;;;;;10.07;5.38;;;;;;;19.15;76.05;101120.34;5023176;28;20082;-80
2021/08/31 08:31:15;;;;;;;8.77;6.10;;;;;;;18.01;81.16;101120.22;5029718;28;20067;-77
2021/08/31 08:33:42;;;;;;;12.68;6.53;;;;;;;18.07;82.47;101121.56;5046467;28;20053;-79
2021/08/31 08:36:09;;;;;;;10.27;6.20;;;;;;;17.95;83.29;101123.41;5029491;28;20454;-82
2021/08/31 08:38:36;;;;;;;8.20;6.10;;;;;;;17.71;83.93;101128.88;5026786;28;20045;-77
2021/08/31 08:41:05;;;;;;;8.57;5.65;;;;;;;17.76;84.34;101116.06;5053378;28;20376;-78
2021/08/31 08:43:34;;;;;;;14.13;6.88;;;;;;;18.00;84.49;101126.53;5013436;28;20067;-78
2021/08/31 08:46:03;;;;;;;8.57;5.80;;;;;;;18.36;80.40;101122.63;5010041;28;20053;-79
2021/08/31 08:48:34;;;;;;;7.90;5.53;;;;;;;18.57;79.23;101116.47;5031290;28;20404;-79
2021/08/31 08:51:04;;;;;;;8.32;6.20;;;;;;;17.86;82.39;101129.47;5028077;28;20091;-77
2021/08/31 08:53:34;;;;;;;13.77;6.53;;;;;;;18.07;83.01;101127.72;5030194;28;20311;-78
2021/08/31 08:56:01;;;;;;;7.95;5.50;;;;;;;18.21;83.14;101126.59;5029639;28;20472;-81
2021/08/31 08:58:31;;;;;;;10.38;6.00;;;;;;;17.84;81.89;101118.13;5030060;28;20041;-79
2021/08/31 09:01:01;;;;;;;9.20;6.75;;;;;;;17.44;84.43;101127.47;5016460;28;20144;-79
2021/08/31 09:03:34;;;;;;;12.00;6.88;;;;;;;17.45;86.00;101137.13;5030106;28;20938;-77
2021/08/31 09:06:08;;;;;;;8.07;6.28;;;;;;;18.19;82.95;101126.72;5028897;28;20122;-78
2021/08/31 09:08:36;;;;;;;6.95;5.43;;;;;;;18.67;80.02;101123.56;5031023;28;20057;-78
2021/08/31 09:11:31;;;;;;;16.40;6.57;;;;;;;18.40;80.90;101123.22;5046626;28;20059;-77
2021/08/31 09:14:24;;;;;;;7.32;5.38;;;;;;;18.97;77.85;101125.44;5014616;28;20179;-78
2021/08/31 09:16:55;;;;;;;9.68;5.78;;;;;;;18.75;78.92;101122.09;5012530;28;20410;-77
2021/08/31 09:19:36;;;;;;;7.75;5.53;;;;;;;18.18;80.76;101121.50;5028009;28;20475;-77
2021/08/31 09:22:16;;;;;;;12.50;6.30;;;;;;;18.18;80.42;101125.00;5032488;28;20595;-78
2021/08/31 09:25:04;;;;;;;11.98;7.07;;;;;;;18.29;80.54;101141.94;5022588;28;20051;-75
2021/08/31 09:27:40;;;;;;;7.90;6.13;;;;;;;18.50;80.62;101126.78;5049619;28;20562;-75
2021/08/31 09:30:37;;;;;;;14.57;6.38;;;;;;;18.97;77.94;101132.63;5024930;28;20149;-76
2021/08/31 09:33:09;;;;;;;8.10;5.85;;;;;;;18.92;77.62;101135.69;4994751;28;20144;-82
2021/08/31 09:35:42;;;;;;;8.73;6.90;;;;;;;18.80;79.15;101134.06;5029816;28;20052;-82
2021/08/31 09:38:11;;;;;;;8.82;6.28;;;;;;;19.05;76.39;101122.13;5047615;28;20483;-80
2021/08/31 09:40:45;;;;;;;14.30;6.10;;;;;;;19.36;74.68;101139.00;5001138;28;20082;-80
2021/08/31 09:43:21;;;;;;;8.85;6.32;;;;;;;18.99;76.29;101160.00;5026934;28;20079;-81
2021/08/31 09:45:51;;;;;;;9.55;6.88;;;;;;;18.92;77.15;101148.19;5047111;28;20037;-79
2021/08/31 09:48:20;;;;;;;10.85;6.95;;;;;;;19.41;74.91;101147.44;5034687;28;20073;-78
2021/08/31 09:50:53;;;;;;;9.43;6.05;;;;;;;19.12;74.88;101146.44;5015823;28;20111;-79
2021/08/31 09:53:23;;;;;;;9.52;6.30;;;;;;;19.01;76.27;101150.06;5035310;28;20077;-81
2021/08/31 09:56:08;;;;;;;7.40;5.50;;;;;;;19.55;74.03;101158.72;5048676;28;20132;-82
2021/08/31 09:58:46;;;;;;;10.27;6.30;;;;;;;19.21;75.31;101159.84;5034999;28;20167;-82
2021/08/31 10:01:14;;;;;;;7.68;6.35;;;;;;;19.55;73.56;101164.06;5041439;28;20413;-80
2021/08/31 10:03:43;;;;;;;7.72;5.82;;;;;;;19.83;73.36;101157.97;5034846;28;20179;-80
2021/08/31 10:06:12;;;;;;;9.88;6.63;;;;;;;20.10;71.33;101156.47;5034421;28;20097;-81
2021/08/31 10:08:41;;;;;;;10.20;6.13;;;;;;;19.82;70.84;101158.13;5040236;28;20576;-80
2021/08/31 10:11:10;;;;;;;8.15;6.00;;;;;;;19.59;71.43;101165.50;5001763;28;20177;-82
2021/08/31 10:13:40;;;;;;;6.65;5.88;;;;;;;20.18;70.22;101162.81;5021844;28;20045;-83
2021/08/31 10:16:09;;;;;;;8.93;6.57;;;;;;;20.20;69.98;101165.34;5028287;28;20115;-82
2021/08/31 10:18:36;;;;;;;6.15;5.32;;;;;;;20.06;69.39;101155.91;5024583;28;20316;-78
2021/08/31 10:21:07;;;;;;;7.45;5.90;;;;;;;20.31;69.29;101167.91;5018973;28;20120;-82
2021/08/31 10:23:46;;;;;;;9.10;5.75;;;;;;;20.11;69.82;101160.84;5023447;28;20121;-82
2021/08/31 10:26:22;;;;;;;10.95;5.50;;;;;;;20.62;67.57;101149.88;5027738;28;20487;-80
2021/08/31 10:29:21;;;;;;;8.82;5.63;;;;;;;20.84;66.20;101148.72;5027383;28;20131;-80
2021/08/31 10:31:50;;;;;;;10.52;6.40;;;;;;;20.64;66.19;101155.94;5046610;28;20479;-79
2021/08/31 10:34:29;;;;;;;9.77;6.13;;;;;;;20.30;68.16;101154.66;5047741;28;20067;-82
2021/08/31 10:37:01;;;;;;;14.90;6.68;;;;;;;20.80;67.56;101159.84;5049285;28;20653;-78
2021/08/31 10:39:50;;;;;;;9.40;5.80;;;;;;;20.40;67.78;101160.88;5014281;28;20164;-81
2021/08/31 10:42:24;;;;;;;8.88;6.18;;;;;;;20.11;68.46;101172.38;5046603;28;20056;-77
2021/08/31 10:44:53;;;;;;;8.73;5.80;;;;;;;19.87;70.48;101179.94;5027248;28;20558;-80
2021/08/31 10:47:36;;;;;;;9.00;5.75;;;;;;;19.51;73.12;101192.03;5029114;28;20537;-81
2021/08/31 10:50:15;;;;;;;15.52;6.28;;;;;;;19.39;72.49;101193.94;5029915;28;20044;-81
2021/08/31 10:53:04;;;;;;;9.57;6.88;;;;;;;19.17;73.16;101193.09;5049019;28;20147;-84
2021/08/31 10:55:44;;;;;;;9.50;6.50;;;;;;;19.30;72.72;101194.72;5031744;28;20116;-84
2021/08/31 10:58:14;;;;;;;7.65;6.35;;;;;;;19.63;72.11;101198.97;5040256;28;20063;-83
2021/08/31 11:00:46;;;;;;;7.72;6.32;;;;;;;19.38;71.62;101193.09;5024754;28;21075;-80
2021/08/31 11:03:33;;;;;;;7.50;5.93;;;;;;;19.75;70.57;101199.72;5028598;28;20061;-83
2021/08/31 11:06:19;;;;;;;8.73;5.70;;;;;;;19.28;72.29;101194.03;5021285;28;20124;-79
2021/08/31 11:09:08;;;;;;;6.55;5.45;;;;;;;19.25;72.40;101183.59;5042843;28;20059;-79
2021/08/31 11:11:35;;;;;;;8.65;6.47;;;;;;;19.68;72.11;101180.72;5010765;28;20036;-82
2021/08/31 11:14:04;;;;;;;7.40;6.00;;;;;;;19.88;69.18;101189.63;5023667;28;20439;-83
2021/08/31 11:16:37;;;;;;;10.55;5.97;;;;;;;19.94;67.48;101200.59;5015068;28;20052;-79
2021/08/31 11:19:22;;;;;;;7.35;5.38;;;;;;;20.02;67.44;101193.75;5027161;28;20045;-80
2021/08/31 11:21:50;;;;;;;10.38;5.65;;;;;;;20.60;64.98;101183.13;5043073;28;20049;-78